sensor_id;sensor_type;location;lat;lon;timestamp;P1;durP1;ratioP1;P2;durP2;ratioP2
11287;SDS011;5700;50.996;7.044;2023-11-19T00:00:09;1.23;;;0.75;;
11287;SDS011;5700;50.996;7.044;2023-11-19T00:03:12;1.75;;;0.93;;
11287;SDS011;5700;50.996;7.044;2023-11-19T00:06:15;1.40;;;0.98;;
11287;SDS011;5700;50.996;7.044;2023-11-19T00:09:17;1.70;;;0.90;;
11287;SDS011;5700;50.996;7.044;2023-11-19T00:12:19;1.85;;;1.05;;
11287;SDS011;5700;50.996;7.044;2023-11-19T00:15:20;1.60;;;0.80;;
11287;SDS011;5700;50.996;7.044;2023-11-19T00:18:24;1.33;;;0.73;;
11287;SDS011;5700;50.996;7.044;2023-11-19T00:21:27;1.25;;;0.80;;
11287;SDS011;5700;50.996;7.044;2023-11-19T00:24:29;1.83;;;0.80;;
11287;SDS011;5700;50.996;7.044;2023-11-19T00:27:31;1.90;;;0.90;;
11287;SDS011;5700;50.996;7.044;2023-11-19T00:30:33;1.25;;;0.85;;
11287;SDS011;5700;50.996;7.044;2023-11-19T00:33:34;2.72;;;1.10;;
11287;SDS011;5700;50.996;7.044;2023-11-19T00:36:39;1.38;;;0.75;;
11287;SDS011;5700;50.996;7.044;2023-11-19T00:39:40;1.42;;;0.70;;
11287;SDS011;5700;50.996;7.044;2023-11-19T00:42:42;1.75;;;0.90;;
11287;SDS011;5700;50.996;7.044;2023-11-19T00:45:44;1.58;;;0.90;;
11287;SDS011;5700;50.996;7.044;2023-11-19T00:48:45;1.20;;;0.80;;
11287;SDS011;5700;50.996;7.044;2023-11-19T00:51:49;1.50;;;0.80;;
11287;SDS011;5700;50.996;7.044;2023-11-19T00:54:50;1.75;;;0.82;;
11287;SDS011;5700;50.996;7.044;2023-11-19T00:57:52;0.98;;;0.70;;
11287;SDS011;5700;50.996;7.044;2023-11-19T01:00:54;0.63;;;0.60;;
11287;SDS011;5700;50.996;7.044;2023-11-19T01:03:57;1.08;;;0.80;;
11287;SDS011;5700;50.996;7.044;2023-11-19T01:07:00;1.08;;;0.60;;
11287;SDS011;5700;50.996;7.044;2023-11-19T01:10:04;1.35;;;0.70;;
11287;SDS011;5700;50.996;7.044;2023-11-19T01:13:06;2.83;;;0.68;;
11287;SDS011;5700;50.996;7.044;2023-11-19T01:16:08;2.30;;;1.17;;
11287;SDS011;5700;50.996;7.044;2023-11-19T01:19:10;1.85;;;1.00;;
11287;SDS011;5700;50.996;7.044;2023-11-19T01:22:12;1.73;;;0.90;;
11287;SDS011;5700;50.996;7.044;2023-11-19T01:25:14;1.40;;;0.70;;
11287;SDS011;5700;50.996;7.044;2023-11-19T01:28:16;2.15;;;0.80;;
11287;SDS011;5700;50.996;7.044;2023-11-19T01:31:17;1.55;;;0.65;;
11287;SDS011;5700;50.996;7.044;2023-11-19T01:34:18;1.33;;;0.68;;
11287;SDS011;5700;50.996;7.044;2023-11-19T01:37:21;3.35;;;0.80;;
11287;SDS011;5700;50.996;7.044;2023-11-19T01:40:23;0.88;;;0.50;;
11287;SDS011;5700;50.996;7.044;2023-11-19T01:43:32;5.28;;;0.80;;
11287;SDS011;5700;50.996;7.044;2023-11-19T01:46:34;1.13;;;0.85;;
11287;SDS011;5700;50.996;7.044;2023-11-19T01:49:37;0.80;;;0.65;;
11287;SDS011;5700;50.996;7.044;2023-11-19T01:52:40;1.00;;;0.70;;
11287;SDS011;5700;50.996;7.044;2023-11-19T01:55:41;1.25;;;0.60;;
11287;SDS011;5700;50.996;7.044;2023-11-19T01:58:43;1.60;;;0.82;;
11287;SDS011;5700;50.996;7.044;2023-11-19T02:01:45;1.00;;;0.60;;
11287;SDS011;5700;50.996;7.044;2023-11-19T02:04:47;1.95;;;1.10;;
11287;SDS011;5700;50.996;7.044;2023-11-19T02:07:52;1.77;;;0.90;;
11287;SDS011;5700;50.996;7.044;2023-11-19T02:10:53;0.88;;;0.60;;
11287;SDS011;5700;50.996;7.044;2023-11-19T02:13:56;1.65;;;0.98;;
11287;SDS011;5700;50.996;7.044;2023-11-19T02:16:58;5.95;;;0.90;;
11287;SDS011;5700;50.996;7.044;2023-11-19T02:19:59;1.30;;;0.80;;
11287;SDS011;5700;50.996;7.044;2023-11-19T02:23:04;1.80;;;0.85;;
11287;SDS011;5700;50.996;7.044;2023-11-19T02:26:09;1.75;;;0.98;;
11287;SDS011;5700;50.996;7.044;2023-11-19T02:29:16;2.35;;;0.70;;
11287;SDS011;5700;50.996;7.044;2023-11-19T02:32:18;2.55;;;1.40;;
11287;SDS011;5700;50.996;7.044;2023-11-19T02:35:20;1.65;;;1.00;;
11287;SDS011;5700;50.996;7.044;2023-11-19T02:38:22;4.55;;;1.15;;
11287;SDS011;5700;50.996;7.044;2023-11-19T02:41:24;1.70;;;0.90;;
11287;SDS011;5700;50.996;7.044;2023-11-19T02:44:27;2.20;;;1.13;;
11287;SDS011;5700;50.996;7.044;2023-11-19T02:47:30;2.05;;;0.95;;
11287;SDS011;5700;50.996;7.044;2023-11-19T02:50:32;2.60;;;1.02;;
11287;SDS011;5700;50.996;7.044;2023-11-19T02:53:33;1.77;;;1.10;;
11287;SDS011;5700;50.996;7.044;2023-11-19T02:56:35;1.50;;;0.85;;
11287;SDS011;5700;50.996;7.044;2023-11-19T02:59:40;1.75;;;0.95;;
11287;SDS011;5700;50.996;7.044;2023-11-19T03:02:44;2.67;;;1.15;;
11287;SDS011;5700;50.996;7.044;2023-11-19T03:05:46;1.50;;;0.93;;
11287;SDS011;5700;50.996;7.044;2023-11-19T03:08:48;2.15;;;1.13;;
11287;SDS011;5700;50.996;7.044;2023-11-19T03:11:49;4.28;;;1.08;;
11287;SDS011;5700;50.996;7.044;2023-11-19T03:14:52;2.17;;;1.10;;
11287;SDS011;5700;50.996;7.044;2023-11-19T03:17:55;5.25;;;0.93;;
11287;SDS011;5700;50.996;7.044;2023-11-19T03:20:57;1.15;;;0.90;;
11287;SDS011;5700;50.996;7.044;2023-11-19T03:23:59;1.02;;;0.93;;
11287;SDS011;5700;50.996;7.044;2023-11-19T03:27:01;2.17;;;1.20;;
11287;SDS011;5700;50.996;7.044;2023-11-19T03:30:05;3.05;;;0.98;;
11287;SDS011;5700;50.996;7.044;2023-11-19T03:33:09;2.53;;;0.60;;
11287;SDS011;5700;50.996;7.044;2023-11-19T03:36:11;1.55;;;0.90;;
11287;SDS011;5700;50.996;7.044;2023-11-19T03:39:13;1.15;;;0.80;;
11287;SDS011;5700;50.996;7.044;2023-11-19T03:42:14;1.52;;;0.95;;
11287;SDS011;5700;50.996;7.044;2023-11-19T03:45:18;2.97;;;0.90;;
11287;SDS011;5700;50.996;7.044;2023-11-19T03:48:19;1.58;;;0.95;;
11287;SDS011;5700;50.996;7.044;2023-11-19T03:51:21;2.15;;;0.90;;
11287;SDS011;5700;50.996;7.044;2023-11-19T03:54:22;3.63;;;0.82;;
11287;SDS011;5700;50.996;7.044;2023-11-19T03:57:24;2.58;;;1.15;;
11287;SDS011;5700;50.996;7.044;2023-11-19T04:00:27;9.15;;;1.58;;
11287;SDS011;5700;50.996;7.044;2023-11-19T04:03:29;7.28;;;1.77;;
11287;SDS011;5700;50.996;7.044;2023-11-19T04:06:31;5.68;;;1.48;;
11287;SDS011;5700;50.996;7.044;2023-11-19T04:09:32;5.15;;;1.50;;
11287;SDS011;5700;50.996;7.044;2023-11-19T04:12:34;6.88;;;1.60;;
11287;SDS011;5700;50.996;7.044;2023-11-19T04:15:38;7.32;;;1.33;;
11287;SDS011;5700;50.996;7.044;2023-11-19T04:18:39;6.72;;;1.98;;
11287;SDS011;5700;50.996;7.044;2023-11-19T04:21:41;11.70;;;1.85;;
11287;SDS011;5700;50.996;7.044;2023-11-19T04:24:43;10.85;;;1.88;;
11287;SDS011;5700;50.996;7.044;2023-11-19T04:27:45;4.90;;;1.50;;
11287;SDS011;5700;50.996;7.044;2023-11-19T04:30:50;6.45;;;1.88;;
11287;SDS011;5700;50.996;7.044;2023-11-19T04:33:51;5.00;;;1.85;;
11287;SDS011;5700;50.996;7.044;2023-11-19T04:36:54;7.25;;;2.33;;
11287;SDS011;5700;50.996;7.044;2023-11-19T04:39:56;6.20;;;1.30;;
11287;SDS011;5700;50.996;7.044;2023-11-19T04:42:59;7.30;;;2.10;;
11287;SDS011;5700;50.996;7.044;2023-11-19T04:46:04;8.93;;;2.13;;
11287;SDS011;5700;50.996;7.044;2023-11-19T04:49:06;10.10;;;2.00;;
11287;SDS011;5700;50.996;7.044;2023-11-19T04:52:07;6.95;;;2.00;;
11287;SDS011;5700;50.996;7.044;2023-11-19T04:55:09;12.90;;;2.63;;
11287;SDS011;5700;50.996;7.044;2023-11-19T04:58:14;13.20;;;2.20;;
11287;SDS011;5700;50.996;7.044;2023-11-19T05:01:17;8.45;;;2.15;;
11287;SDS011;5700;50.996;7.044;2023-11-19T05:04:18;15.13;;;2.65;;
11287;SDS011;5700;50.996;7.044;2023-11-19T05:07:20;9.52;;;2.28;;
11287;SDS011;5700;50.996;7.044;2023-11-19T05:10:22;10.10;;;2.13;;
11287;SDS011;5700;50.996;7.044;2023-11-19T05:13:24;10.75;;;2.13;;
11287;SDS011;5700;50.996;7.044;2023-11-19T05:16:28;9.02;;;1.88;;
11287;SDS011;5700;50.996;7.044;2023-11-19T05:19:29;12.55;;;2.55;;
11287;SDS011;5700;50.996;7.044;2023-11-19T05:22:31;12.88;;;2.60;;
11287;SDS011;5700;50.996;7.044;2023-11-19T05:25:33;14.57;;;2.78;;
11287;SDS011;5700;50.996;7.044;2023-11-19T05:28:35;10.57;;;2.65;;
11287;SDS011;5700;50.996;7.044;2023-11-19T05:31:40;17.15;;;2.42;;
11287;SDS011;5700;50.996;7.044;2023-11-19T05:34:41;13.43;;;2.20;;
11287;SDS011;5700;50.996;7.044;2023-11-19T05:37:43;15.02;;;2.97;;
11287;SDS011;5700;50.996;7.044;2023-11-19T05:40:44;10.20;;;1.90;;
11287;SDS011;5700;50.996;7.044;2023-11-19T05:43:48;10.68;;;2.15;;
11287;SDS011;5700;50.996;7.044;2023-11-19T05:46:51;12.35;;;2.47;;
11287;SDS011;5700;50.996;7.044;2023-11-19T05:49:53;14.63;;;2.63;;
11287;SDS011;5700;50.996;7.044;2023-11-19T05:52:54;10.73;;;1.88;;
11287;SDS011;5700;50.996;7.044;2023-11-19T05:55:55;9.68;;;2.28;;
11287;SDS011;5700;50.996;7.044;2023-11-19T05:58:57;14.23;;;2.25;;
11287;SDS011;5700;50.996;7.044;2023-11-19T06:02:01;16.88;;;2.58;;
11287;SDS011;5700;50.996;7.044;2023-11-19T06:05:03;17.27;;;2.67;;
11287;SDS011;5700;50.996;7.044;2023-11-19T06:08:06;14.55;;;2.40;;
11287;SDS011;5700;50.996;7.044;2023-11-19T06:11:09;18.20;;;2.53;;
11287;SDS011;5700;50.996;7.044;2023-11-19T06:14:14;13.27;;;2.22;;
11287;SDS011;5700;50.996;7.044;2023-11-19T06:17:17;19.60;;;2.47;;
11287;SDS011;5700;50.996;7.044;2023-11-19T06:20:19;18.58;;;2.70;;
11287;SDS011;5700;50.996;7.044;2023-11-19T06:23:21;21.75;;;2.70;;
11287;SDS011;5700;50.996;7.044;2023-11-19T06:26:22;20.73;;;3.30;;
11287;SDS011;5700;50.996;7.044;2023-11-19T06:29:24;18.23;;;3.67;;
11287;SDS011;5700;50.996;7.044;2023-11-19T06:32:27;15.98;;;2.35;;
11287;SDS011;5700;50.996;7.044;2023-11-19T06:35:29;16.98;;;2.30;;
11287;SDS011;5700;50.996;7.044;2023-11-19T06:38:36;18.00;;;3.78;;
11287;SDS011;5700;50.996;7.044;2023-11-19T06:41:37;12.35;;;2.78;;
11287;SDS011;5700;50.996;7.044;2023-11-19T06:44:39;11.50;;;2.15;;
11287;SDS011;5700;50.996;7.044;2023-11-19T06:47:42;19.45;;;3.28;;
11287;SDS011;5700;50.996;7.044;2023-11-19T06:50:44;16.92;;;2.67;;
11287;SDS011;5700;50.996;7.044;2023-11-19T06:53:45;14.68;;;2.20;;
11287;SDS011;5700;50.996;7.044;2023-11-19T06:56:46;16.67;;;2.58;;
11287;SDS011;5700;50.996;7.044;2023-11-19T06:59:49;15.38;;;2.25;;
11287;SDS011;5700;50.996;7.044;2023-11-19T07:02:53;15.50;;;3.17;;
11287;SDS011;5700;50.996;7.044;2023-11-19T07:05:55;18.02;;;3.28;;
11287;SDS011;5700;50.996;7.044;2023-11-19T07:08:56;14.95;;;2.95;;
11287;SDS011;5700;50.996;7.044;2023-11-19T07:11:58;17.92;;;3.33;;
11287;SDS011;5700;50.996;7.044;2023-11-19T07:15:00;16.65;;;2.47;;
11287;SDS011;5700;50.996;7.044;2023-11-19T07:18:03;15.80;;;2.60;;
11287;SDS011;5700;50.996;7.044;2023-11-19T07:21:05;10.35;;;2.35;;
11287;SDS011;5700;50.996;7.044;2023-11-19T07:24:07;13.90;;;2.88;;
11287;SDS011;5700;50.996;7.044;2023-11-19T07:27:09;7.50;;;2.33;;
11287;SDS011;5700;50.996;7.044;2023-11-19T07:30:10;5.35;;;2.05;;
11287;SDS011;5700;50.996;7.044;2023-11-19T07:33:13;6.82;;;1.95;;
11287;SDS011;5700;50.996;7.044;2023-11-19T07:36:14;12.35;;;2.40;;
11287;SDS011;5700;50.996;7.044;2023-11-19T07:39:16;15.75;;;2.25;;
11287;SDS011;5700;50.996;7.044;2023-11-19T07:42:18;14.93;;;2.70;;
11287;SDS011;5700;50.996;7.044;2023-11-19T07:45:20;10.68;;;1.90;;
11287;SDS011;5700;50.996;7.044;2023-11-19T07:48:22;15.48;;;2.55;;
11287;SDS011;5700;50.996;7.044;2023-11-19T07:51:24;13.25;;;2.05;;
11287;SDS011;5700;50.996;7.044;2023-11-19T07:54:26;17.10;;;3.10;;
11287;SDS011;5700;50.996;7.044;2023-11-19T07:57:28;16.30;;;2.75;;
11287;SDS011;5700;50.996;7.044;2023-11-19T08:00:30;19.95;;;3.20;;
11287;SDS011;5700;50.996;7.044;2023-11-19T08:03:34;15.10;;;2.80;;
11287;SDS011;5700;50.996;7.044;2023-11-19T08:06:35;16.10;;;2.58;;
11287;SDS011;5700;50.996;7.044;2023-11-19T08:09:37;11.15;;;1.92;;
11287;SDS011;5700;50.996;7.044;2023-11-19T08:12:39;15.82;;;2.50;;
11287;SDS011;5700;50.996;7.044;2023-11-19T08:15:40;15.68;;;2.30;;
11287;SDS011;5700;50.996;7.044;2023-11-19T08:18:44;20.48;;;3.53;;
11287;SDS011;5700;50.996;7.044;2023-11-19T08:21:45;15.57;;;2.72;;
11287;SDS011;5700;50.996;7.044;2023-11-19T08:24:47;7.68;;;2.08;;
11287;SDS011;5700;50.996;7.044;2023-11-19T08:27:48;17.40;;;2.63;;
11287;SDS011;5700;50.996;7.044;2023-11-19T08:30:50;14.70;;;2.25;;
11287;SDS011;5700;50.996;7.044;2023-11-19T08:33:52;14.88;;;2.25;;
11287;SDS011;5700;50.996;7.044;2023-11-19T08:36:54;17.75;;;2.70;;
11287;SDS011;5700;50.996;7.044;2023-11-19T08:39:55;16.38;;;3.15;;
11287;SDS011;5700;50.996;7.044;2023-11-19T08:42:57;10.25;;;2.15;;
11287;SDS011;5700;50.996;7.044;2023-11-19T08:45:58;11.70;;;2.35;;
11287;SDS011;5700;50.996;7.044;2023-11-19T08:49:01;12.30;;;2.10;;
11287;SDS011;5700;50.996;7.044;2023-11-19T08:52:03;10.63;;;1.88;;
11287;SDS011;5700;50.996;7.044;2023-11-19T08:55:05;12.77;;;2.33;;
11287;SDS011;5700;50.996;7.044;2023-11-19T08:58:07;13.20;;;2.33;;
11287;SDS011;5700;50.996;7.044;2023-11-19T09:01:08;11.85;;;3.13;;
11287;SDS011;5700;50.996;7.044;2023-11-19T09:04:12;14.65;;;2.90;;
11287;SDS011;5700;50.996;7.044;2023-11-19T09:07:14;16.48;;;2.83;;
11287;SDS011;5700;50.996;7.044;2023-11-19T09:10:15;9.18;;;2.10;;
11287;SDS011;5700;50.996;7.044;2023-11-19T09:13:17;16.02;;;2.40;;
11287;SDS011;5700;50.996;7.044;2023-11-19T09:16:19;16.02;;;2.80;;
11287;SDS011;5700;50.996;7.044;2023-11-19T09:19:22;16.02;;;3.88;;
11287;SDS011;5700;50.996;7.044;2023-11-19T09:22:23;15.65;;;3.05;;
11287;SDS011;5700;50.996;7.044;2023-11-19T09:25:25;12.05;;;2.72;;
11287;SDS011;5700;50.996;7.044;2023-11-19T09:28:26;18.40;;;2.47;;
11287;SDS011;5700;50.996;7.044;2023-11-19T09:31:28;13.00;;;2.85;;
11287;SDS011;5700;50.996;7.044;2023-11-19T09:34:31;14.18;;;2.75;;
11287;SDS011;5700;50.996;7.044;2023-11-19T09:37:33;16.05;;;3.55;;
11287;SDS011;5700;50.996;7.044;2023-11-19T09:40:34;12.40;;;2.25;;
11287;SDS011;5700;50.996;7.044;2023-11-19T09:43:38;18.30;;;2.88;;
11287;SDS011;5700;50.996;7.044;2023-11-19T09:46:40;13.18;;;2.80;;
11287;SDS011;5700;50.996;7.044;2023-11-19T09:49:43;12.75;;;2.33;;
11287;SDS011;5700;50.996;7.044;2023-11-19T09:52:45;12.85;;;2.92;;
11287;SDS011;5700;50.996;7.044;2023-11-19T09:55:47;18.65;;;3.03;;
11287;SDS011;5700;50.996;7.044;2023-11-19T09:58:49;13.32;;;2.38;;
11287;SDS011;5700;50.996;7.044;2023-11-19T10:01:50;20.20;;;2.85;;
11287;SDS011;5700;50.996;7.044;2023-11-19T10:04:53;10.65;;;2.00;;
11287;SDS011;5700;50.996;7.044;2023-11-19T10:07:55;13.02;;;2.28;;
11287;SDS011;5700;50.996;7.044;2023-11-19T10:10:57;13.65;;;2.80;;
11287;SDS011;5700;50.996;7.044;2023-11-19T10:13:59;7.65;;;2.17;;
11287;SDS011;5700;50.996;7.044;2023-11-19T10:17:01;13.30;;;2.28;;
11287;SDS011;5700;50.996;7.044;2023-11-19T10:20:06;12.15;;;3.08;;
11287;SDS011;5700;50.996;7.044;2023-11-19T10:23:10;16.90;;;3.08;;
11287;SDS011;5700;50.996;7.044;2023-11-19T10:26:12;10.60;;;2.25;;
11287;SDS011;5700;50.996;7.044;2023-11-19T10:29:13;8.82;;;2.17;;
11287;SDS011;5700;50.996;7.044;2023-11-19T10:32:15;12.55;;;2.03;;
11287;SDS011;5700;50.996;7.044;2023-11-19T10:35:18;14.02;;;2.28;;
11287;SDS011;5700;50.996;7.044;2023-11-19T10:38:20;15.45;;;2.15;;
11287;SDS011;5700;50.996;7.044;2023-11-19T10:41:29;9.32;;;2.00;;
11287;SDS011;5700;50.996;7.044;2023-11-19T10:44:31;10.55;;;2.45;;
11287;SDS011;5700;50.996;7.044;2023-11-19T10:47:36;12.27;;;2.35;;
11287;SDS011;5700;50.996;7.044;2023-11-19T10:50:40;16.30;;;2.53;;
11287;SDS011;5700;50.996;7.044;2023-11-19T10:53:42;12.32;;;2.17;;
11287;SDS011;5700;50.996;7.044;2023-11-19T10:56:45;13.63;;;3.13;;
11287;SDS011;5700;50.996;7.044;2023-11-19T10:59:52;12.20;;;2.50;;
11287;SDS011;5700;50.996;7.044;2023-11-19T11:03:00;7.88;;;2.15;;
11287;SDS011;5700;50.996;7.044;2023-11-19T11:06:04;14.55;;;2.30;;
11287;SDS011;5700;50.996;7.044;2023-11-19T11:09:05;12.63;;;2.05;;
11287;SDS011;5700;50.996;7.044;2023-11-19T11:12:11;15.77;;;2.72;;
11287;SDS011;5700;50.996;7.044;2023-11-19T11:15:13;9.95;;;1.95;;
11287;SDS011;5700;50.996;7.044;2023-11-19T11:18:16;15.07;;;2.58;;
11287;SDS011;5700;50.996;7.044;2023-11-19T11:21:21;11.00;;;2.38;;
11287;SDS011;5700;50.996;7.044;2023-11-19T11:24:30;12.40;;;2.10;;
11287;SDS011;5700;50.996;7.044;2023-11-19T11:27:43;13.70;;;1.98;;
11287;SDS011;5700;50.996;7.044;2023-11-19T11:30:55;8.48;;;1.67;;
11287;SDS011;5700;50.996;7.044;2023-11-19T11:34:12;10.95;;;2.25;;
11287;SDS011;5700;50.996;7.044;2023-11-19T11:37:25;18.58;;;3.30;;
11287;SDS011;5700;50.996;7.044;2023-11-19T11:40:32;12.27;;;1.98;;
11287;SDS011;5700;50.996;7.044;2023-11-19T11:46:55;7.82;;;1.80;;
11287;SDS011;5700;50.996;7.044;2023-11-19T11:49:58;13.75;;;2.10;;
11287;SDS011;5700;50.996;7.044;2023-11-19T11:53:15;15.80;;;2.60;;
11287;SDS011;5700;50.996;7.044;2023-11-19T11:56:18;8.48;;;1.88;;
11287;SDS011;5700;50.996;7.044;2023-11-19T11:59:20;10.32;;;1.90;;
11287;SDS011;5700;50.996;7.044;2023-11-19T12:02:22;13.40;;;1.42;;
11287;SDS011;5700;50.996;7.044;2023-11-19T12:05:23;8.68;;;2.10;;
11287;SDS011;5700;50.996;7.044;2023-11-19T12:08:28;10.75;;;2.40;;
11287;SDS011;5700;50.996;7.044;2023-11-19T12:11:30;10.73;;;2.00;;
11287;SDS011;5700;50.996;7.044;2023-11-19T12:18:07;7.80;;;1.60;;
11287;SDS011;5700;50.996;7.044;2023-11-19T12:21:09;11.90;;;2.05;;
11287;SDS011;5700;50.996;7.044;2023-11-19T12:24:12;5.03;;;1.30;;
11287;SDS011;5700;50.996;7.044;2023-11-19T12:27:14;7.45;;;1.50;;
11287;SDS011;5700;50.996;7.044;2023-11-19T12:30:17;6.85;;;1.48;;
11287;SDS011;5700;50.996;7.044;2023-11-19T12:33:22;11.82;;;2.30;;
11287;SDS011;5700;50.996;7.044;2023-11-19T12:36:24;7.68;;;1.52;;
11287;SDS011;5700;50.996;7.044;2023-11-19T12:39:27;9.07;;;1.67;;
11287;SDS011;5700;50.996;7.044;2023-11-19T12:42:37;8.43;;;1.83;;
11287;SDS011;5700;50.996;7.044;2023-11-19T12:45:39;9.10;;;1.88;;
11287;SDS011;5700;50.996;7.044;2023-11-19T12:48:41;6.88;;;1.58;;
11287;SDS011;5700;50.996;7.044;2023-11-19T12:51:42;10.45;;;2.47;;
11287;SDS011;5700;50.996;7.044;2023-11-19T12:54:46;14.23;;;2.30;;
11287;SDS011;5700;50.996;7.044;2023-11-19T12:57:47;10.93;;;2.22;;
11287;SDS011;5700;50.996;7.044;2023-11-19T13:00:48;7.63;;;2.00;;
11287;SDS011;5700;50.996;7.044;2023-11-19T13:04:00;8.23;;;2.05;;
11287;SDS011;5700;50.996;7.044;2023-11-19T13:07:02;13.85;;;2.63;;
11287;SDS011;5700;50.996;7.044;2023-11-19T13:10:06;8.68;;;1.52;;
11287;SDS011;5700;50.996;7.044;2023-11-19T13:13:09;12.38;;;1.75;;
11287;SDS011;5700;50.996;7.044;2023-11-19T13:16:11;13.20;;;1.80;;
11287;SDS011;5700;50.996;7.044;2023-11-19T13:19:14;7.07;;;1.25;;
11287;SDS011;5700;50.996;7.044;2023-11-19T13:22:18;10.23;;;1.88;;
11287;SDS011;5700;50.996;7.044;2023-11-19T13:25:21;9.93;;;2.20;;
11287;SDS011;5700;50.996;7.044;2023-11-19T13:28:23;9.50;;;1.70;;
11287;SDS011;5700;50.996;7.044;2023-11-19T13:31:26;10.52;;;1.85;;
11287;SDS011;5700;50.996;7.044;2023-11-19T13:34:28;13.48;;;2.00;;
11287;SDS011;5700;50.996;7.044;2023-11-19T13:37:29;8.82;;;2.00;;
11287;SDS011;5700;50.996;7.044;2023-11-19T13:40:33;6.10;;;1.42;;
11287;SDS011;5700;50.996;7.044;2023-11-19T13:43:34;8.02;;;1.65;;
11287;SDS011;5700;50.996;7.044;2023-11-19T13:46:36;13.73;;;2.28;;
11287;SDS011;5700;50.996;7.044;2023-11-19T13:49:38;10.63;;;1.67;;
11287;SDS011;5700;50.996;7.044;2023-11-19T13:52:41;6.30;;;1.30;;
11287;SDS011;5700;50.996;7.044;2023-11-19T13:55:46;9.80;;;2.38;;
11287;SDS011;5700;50.996;7.044;2023-11-19T13:58:48;11.27;;;2.33;;
11287;SDS011;5700;50.996;7.044;2023-11-19T14:01:50;11.98;;;2.22;;
11287;SDS011;5700;50.996;7.044;2023-11-19T14:04:52;11.30;;;2.30;;
11287;SDS011;5700;50.996;7.044;2023-11-19T14:07:53;16.02;;;2.28;;
11287;SDS011;5700;50.996;7.044;2023-11-19T14:10:58;10.60;;;2.25;;
11287;SDS011;5700;50.996;7.044;2023-11-19T14:13:59;11.63;;;1.95;;
11287;SDS011;5700;50.996;7.044;2023-11-19T14:17:01;15.07;;;2.17;;
11287;SDS011;5700;50.996;7.044;2023-11-19T14:20:03;12.35;;;1.92;;
11287;SDS011;5700;50.996;7.044;2023-11-19T14:23:12;9.68;;;2.03;;
11287;SDS011;5700;50.996;7.044;2023-11-19T14:26:15;13.13;;;2.28;;
11287;SDS011;5700;50.996;7.044;2023-11-19T14:29:17;15.13;;;2.40;;
11287;SDS011;5700;50.996;7.044;2023-11-19T14:32:20;10.35;;;2.25;;
11287;SDS011;5700;50.996;7.044;2023-11-19T14:35:21;13.95;;;2.60;;
11287;SDS011;5700;50.996;7.044;2023-11-19T14:38:24;12.80;;;2.65;;
11287;SDS011;5700;50.996;7.044;2023-11-19T14:41:27;8.90;;;2.08;;
11287;SDS011;5700;50.996;7.044;2023-11-19T14:44:29;13.23;;;3.03;;
11287;SDS011;5700;50.996;7.044;2023-11-19T14:47:30;9.38;;;2.35;;
11287;SDS011;5700;50.996;7.044;2023-11-19T14:50:32;11.55;;;3.67;;
11287;SDS011;5700;50.996;7.044;2023-11-19T14:53:33;12.73;;;2.45;;
11287;SDS011;5700;50.996;7.044;2023-11-19T14:56:36;6.22;;;2.47;;
11287;SDS011;5700;50.996;7.044;2023-11-19T14:59:39;8.43;;;1.88;;
11287;SDS011;5700;50.996;7.044;2023-11-19T15:02:40;10.70;;;2.30;;
11287;SDS011;5700;50.996;7.044;2023-11-19T15:05:42;7.47;;;1.80;;
11287;SDS011;5700;50.996;7.044;2023-11-19T15:08:45;9.43;;;1.70;;
11287;SDS011;5700;50.996;7.044;2023-11-19T15:11:48;6.80;;;1.52;;
11287;SDS011;5700;50.996;7.044;2023-11-19T15:14:49;10.52;;;1.75;;
11287;SDS011;5700;50.996;7.044;2023-11-19T15:17:50;7.10;;;1.85;;
11287;SDS011;5700;50.996;7.044;2023-11-19T15:20:52;6.32;;;1.52;;
11287;SDS011;5700;50.996;7.044;2023-11-19T15:23:55;10.98;;;1.83;;
11287;SDS011;5700;50.996;7.044;2023-11-19T15:26:57;14.68;;;1.90;;
11287;SDS011;5700;50.996;7.044;2023-11-19T15:29:59;10.65;;;2.42;;
11287;SDS011;5700;50.996;7.044;2023-11-19T15:33:01;9.32;;;1.80;;
11287;SDS011;5700;50.996;7.044;2023-11-19T15:36:02;13.48;;;2.33;;
11287;SDS011;5700;50.996;7.044;2023-11-19T15:39:07;7.72;;;1.80;;
11287;SDS011;5700;50.996;7.044;2023-11-19T15:42:10;12.10;;;1.67;;
11287;SDS011;5700;50.996;7.044;2023-11-19T15:45:12;11.65;;;2.65;;
11287;SDS011;5700;50.996;7.044;2023-11-19T15:48:16;11.20;;;2.03;;
11287;SDS011;5700;50.996;7.044;2023-11-19T15:51:18;15.85;;;3.10;;
11287;SDS011;5700;50.996;7.044;2023-11-19T15:54:19;14.15;;;4.22;;
11287;SDS011;5700;50.996;7.044;2023-11-19T15:57:23;12.82;;;2.33;;
11287;SDS011;5700;50.996;7.044;2023-11-19T16:00:24;17.65;;;3.45;;
11287;SDS011;5700;50.996;7.044;2023-11-19T16:03:26;10.52;;;2.22;;
11287;SDS011;5700;50.996;7.044;2023-11-19T16:06:30;6.13;;;2.30;;
11287;SDS011;5700;50.996;7.044;2023-11-19T16:09:32;12.45;;;2.15;;
11287;SDS011;5700;50.996;7.044;2023-11-19T16:12:35;13.13;;;2.58;;
11287;SDS011;5700;50.996;7.044;2023-11-19T16:15:36;9.32;;;2.33;;
11287;SDS011;5700;50.996;7.044;2023-11-19T16:18:38;6.65;;;2.72;;
11287;SDS011;5700;50.996;7.044;2023-11-19T16:21:39;15.23;;;2.30;;
11287;SDS011;5700;50.996;7.044;2023-11-19T16:24:41;14.32;;;3.22;;
11287;SDS011;5700;50.996;7.044;2023-11-19T16:27:45;10.10;;;2.28;;
11287;SDS011;5700;50.996;7.044;2023-11-19T16:30:46;7.95;;;2.13;;
11287;SDS011;5700;50.996;7.044;2023-11-19T16:33:48;12.10;;;2.17;;
11287;SDS011;5700;50.996;7.044;2023-11-19T16:36:49;9.80;;;2.25;;
11287;SDS011;5700;50.996;7.044;2023-11-19T16:39:51;7.28;;;1.50;;
11287;SDS011;5700;50.996;7.044;2023-11-19T16:42:54;11.68;;;2.05;;
11287;SDS011;5700;50.996;7.044;2023-11-19T16:45:56;7.88;;;2.55;;
11287;SDS011;5700;50.996;7.044;2023-11-19T16:48:58;7.03;;;2.28;;
11287;SDS011;5700;50.996;7.044;2023-11-19T16:52:00;10.63;;;1.95;;
11287;SDS011;5700;50.996;7.044;2023-11-19T16:55:04;7.70;;;1.77;;
11287;SDS011;5700;50.996;7.044;2023-11-19T16:58:12;14.73;;;2.78;;
11287;SDS011;5700;50.996;7.044;2023-11-19T17:01:14;9.10;;;2.38;;
11287;SDS011;5700;50.996;7.044;2023-11-19T17:04:15;11.30;;;2.63;;
11287;SDS011;5700;50.996;7.044;2023-11-19T17:07:17;11.25;;;2.20;;
11287;SDS011;5700;50.996;7.044;2023-11-19T17:10:19;13.98;;;2.13;;
11287;SDS011;5700;50.996;7.044;2023-11-19T17:13:22;10.38;;;1.90;;
11287;SDS011;5700;50.996;7.044;2023-11-19T17:16:24;9.18;;;2.22;;
11287;SDS011;5700;50.996;7.044;2023-11-19T17:19:25;15.15;;;1.85;;
11287;SDS011;5700;50.996;7.044;2023-11-19T17:22:27;12.85;;;2.30;;
11287;SDS011;5700;50.996;7.044;2023-11-19T17:25:28;10.98;;;2.25;;
11287;SDS011;5700;50.996;7.044;2023-11-19T17:28:31;10.02;;;1.98;;
11287;SDS011;5700;50.996;7.044;2023-11-19T17:31:35;14.98;;;2.85;;
11287;SDS011;5700;50.996;7.044;2023-11-19T17:34:37;7.85;;;1.95;;
11287;SDS011;5700;50.996;7.044;2023-11-19T17:37:39;10.85;;;3.08;;
11287;SDS011;5700;50.996;7.044;2023-11-19T17:40:41;12.27;;;2.55;;
11287;SDS011;5700;50.996;7.044;2023-11-19T17:43:44;7.70;;;2.25;;
11287;SDS011;5700;50.996;7.044;2023-11-19T17:46:45;12.05;;;2.08;;
11287;SDS011;5700;50.996;7.044;2023-11-19T17:49:47;10.32;;;2.20;;
11287;SDS011;5700;50.996;7.044;2023-11-19T17:52:48;9.60;;;2.33;;
11287;SDS011;5700;50.996;7.044;2023-11-19T17:55:50;13.93;;;2.40;;
11287;SDS011;5700;50.996;7.044;2023-11-19T17:58:53;9.88;;;2.50;;
11287;SDS011;5700;50.996;7.044;2023-11-19T18:01:54;10.73;;;2.25;;
11287;SDS011;5700;50.996;7.044;2023-11-19T18:04:57;12.40;;;2.08;;
11287;SDS011;5700;50.996;7.044;2023-11-19T18:07:59;11.85;;;2.78;;
11287;SDS011;5700;50.996;7.044;2023-11-19T18:11:00;13.07;;;2.42;;
11287;SDS011;5700;50.996;7.044;2023-11-19T18:14:04;9.10;;;2.53;;
11287;SDS011;5700;50.996;7.044;2023-11-19T18:17:05;7.43;;;2.22;;
11287;SDS011;5700;50.996;7.044;2023-11-19T18:20:07;10.50;;;2.35;;
11287;SDS011;5700;50.996;7.044;2023-11-19T18:23:11;6.72;;;2.10;;
11287;SDS011;5700;50.996;7.044;2023-11-19T18:26:13;7.00;;;1.88;;
11287;SDS011;5700;50.996;7.044;2023-11-19T18:29:17;8.77;;;1.88;;
11287;SDS011;5700;50.996;7.044;2023-11-19T18:32:19;9.23;;;2.15;;